sensor_id;sensor_type;location;lat;lon;timestamp;P1;durP1;ratioP1;P2;durP2;ratioP2
23718;SDS011;43322;52.230;5.702;2023-09-18T00:02:08;46.42;;;32.92;;
23718;SDS011;43322;52.230;5.702;2023-09-18T00:04:35;32.38;;;23.73;;
23718;SDS011;43322;52.230;5.702;2023-09-18T00:07:03;30.98;;;25.02;;
23718;SDS011;43322;52.230;5.702;2023-09-18T00:09:30;35.20;;;27.55;;
23718;SDS011;43322;52.230;5.702;2023-09-18T00:11:57;31.90;;;25.15;;
23718;SDS011;43322;52.230;5.702;2023-09-18T00:14:23;31.48;;;25.13;;
23718;SDS011;43322;52.230;5.702;2023-09-18T00:16:50;35.83;;;26.75;;
23718;SDS011;43322;52.230;5.702;2023-09-18T00:19:17;37.22;;;28.25;;
23718;SDS011;43322;52.230;5.702;2023-09-18T00:21:44;35.75;;;25.67;;
23718;SDS011;43322;52.230;5.702;2023-09-18T00:24:12;39.85;;;28.90;;
23718;SDS011;43322;52.230;5.702;2023-09-18T00:26:39;41.00;;;30.55;;
23718;SDS011;43322;52.230;5.702;2023-09-18T00:29:05;39.05;;;28.98;;
23718;SDS011;43322;52.230;5.702;2023-09-18T00:31:32;43.70;;;29.83;;
23718;SDS011;43322;52.230;5.702;2023-09-18T00:33:58;42.95;;;29.17;;
23718;SDS011;43322;52.230;5.702;2023-09-18T00:36:25;36.40;;;28.88;;
23718;SDS011;43322;52.230;5.702;2023-09-18T00:38:52;35.92;;;28.45;;
23718;SDS011;43322;52.230;5.702;2023-09-18T00:41:20;41.50;;;30.52;;
23718;SDS011;43322;52.230;5.702;2023-09-18T00:43:46;43.75;;;30.30;;
23718;SDS011;43322;52.230;5.702;2023-09-18T00:46:13;43.88;;;30.30;;
23718;SDS011;43322;52.230;5.702;2023-09-18T00:48:40;39.78;;;29.05;;
23718;SDS011;43322;52.230;5.702;2023-09-18T00:51:07;41.45;;;30.60;;
23718;SDS011;43322;52.230;5.702;2023-09-18T00:53:35;36.92;;;28.52;;
23718;SDS011;43322;52.230;5.702;2023-09-18T00:56:04;38.38;;;29.08;;
23718;SDS011;43322;52.230;5.702;2023-09-18T00:58:32;44.97;;;30.75;;
23718;SDS011;43322;52.230;5.702;2023-09-18T01:00:59;51.15;;;31.42;;
23718;SDS011;43322;52.230;5.702;2023-09-18T01:03:26;40.83;;;30.35;;
23718;SDS011;43322;52.230;5.702;2023-09-18T01:05:53;41.55;;;30.10;;
23718;SDS011;43322;52.230;5.702;2023-09-18T01:08:20;41.25;;;29.70;;
23718;SDS011;43322;52.230;5.702;2023-09-18T01:10:48;38.70;;;29.10;;
23718;SDS011;43322;52.230;5.702;2023-09-18T01:13:21;43.20;;;29.30;;
23718;SDS011;43322;52.230;5.702;2023-09-18T01:16:02;43.47;;;29.33;;
23718;SDS011;43322;52.230;5.702;2023-09-18T01:18:34;42.28;;;30.15;;
23718;SDS011;43322;52.230;5.702;2023-09-18T01:21:01;42.22;;;30.63;;
23718;SDS011;43322;52.230;5.702;2023-09-18T01:23:29;43.95;;;31.92;;
23718;SDS011;43322;52.230;5.702;2023-09-18T01:25:55;40.35;;;29.98;;
23718;SDS011;43322;52.230;5.702;2023-09-18T01:28:22;40.58;;;29.50;;
23718;SDS011;43322;52.230;5.702;2023-09-18T01:30:49;45.95;;;30.73;;
23718;SDS011;43322;52.230;5.702;2023-09-18T01:33:15;41.05;;;30.52;;
23718;SDS011;43322;52.230;5.702;2023-09-18T01:35:44;42.33;;;30.05;;
23718;SDS011;43322;52.230;5.702;2023-09-18T01:38:12;47.47;;;32.40;;
23718;SDS011;43322;52.230;5.702;2023-09-18T01:40:40;40.60;;;29.20;;
23718;SDS011;43322;52.230;5.702;2023-09-18T01:43:08;41.88;;;30.77;;
23718;SDS011;43322;52.230;5.702;2023-09-18T01:45:35;44.70;;;32.28;;
23718;SDS011;43322;52.230;5.702;2023-09-18T01:48:04;43.42;;;31.33;;
23718;SDS011;43322;52.230;5.702;2023-09-18T01:50:31;40.38;;;31.33;;
23718;SDS011;43322;52.230;5.702;2023-09-18T01:52:58;46.47;;;30.65;;
23718;SDS011;43322;52.230;5.702;2023-09-18T01:55:24;48.50;;;31.98;;
23718;SDS011;43322;52.230;5.702;2023-09-18T01:57:54;42.30;;;31.35;;
23718;SDS011;43322;52.230;5.702;2023-09-18T02:00:21;49.03;;;32.00;;
23718;SDS011;43322;52.230;5.702;2023-09-18T02:02:48;44.00;;;30.95;;
23718;SDS011;43322;52.230;5.702;2023-09-18T02:05:14;39.97;;;30.60;;
23718;SDS011;43322;52.230;5.702;2023-09-18T02:07:41;45.35;;;31.10;;
23718;SDS011;43322;52.230;5.702;2023-09-18T02:10:08;45.75;;;32.22;;
23718;SDS011;43322;52.230;5.702;2023-09-18T02:12:37;42.08;;;31.52;;
23718;SDS011;43322;52.230;5.702;2023-09-18T02:15:06;41.13;;;31.50;;
23718;SDS011;43322;52.230;5.702;2023-09-18T02:17:35;48.42;;;32.22;;
23718;SDS011;43322;52.230;5.702;2023-09-18T02:20:02;36.97;;;26.92;;
23718;SDS011;43322;52.230;5.702;2023-09-18T02:22:36;43.45;;;29.38;;
23718;SDS011;43322;52.230;5.702;2023-09-18T02:25:03;44.42;;;31.02;;
23718;SDS011;43322;52.230;5.702;2023-09-18T02:27:30;42.25;;;30.95;;
23718;SDS011;43322;52.230;5.702;2023-09-18T02:29:57;37.50;;;28.13;;
23718;SDS011;43322;52.230;5.702;2023-09-18T02:32:25;44.13;;;29.48;;
23718;SDS011;43322;52.230;5.702;2023-09-18T02:34:52;37.40;;;26.20;;
23718;SDS011;43322;52.230;5.702;2023-09-18T02:37:19;39.20;;;28.15;;
23718;SDS011;43322;52.230;5.702;2023-09-18T02:39:45;41.85;;;28.92;;
23718;SDS011;43322;52.230;5.702;2023-09-18T02:42:12;41.63;;;27.75;;
23718;SDS011;43322;52.230;5.702;2023-09-18T02:44:39;40.17;;;25.77;;
23718;SDS011;43322;52.230;5.702;2023-09-18T02:47:05;36.53;;;26.02;;
23718;SDS011;43322;52.230;5.702;2023-09-18T02:49:33;40.53;;;26.23;;
23718;SDS011;43322;52.230;5.702;2023-09-18T02:52:00;33.50;;;24.42;;
23718;SDS011;43322;52.230;5.702;2023-09-18T02:54:28;35.40;;;25.50;;
23718;SDS011;43322;52.230;5.702;2023-09-18T02:56:54;37.90;;;24.83;;
23718;SDS011;43322;52.230;5.702;2023-09-18T02:59:21;29.60;;;22.25;;
23718;SDS011;43322;52.230;5.702;2023-09-18T03:01:48;33.25;;;22.33;;
23718;SDS011;43322;52.230;5.702;2023-09-18T03:04:15;29.15;;;21.73;;
23718;SDS011;43322;52.230;5.702;2023-09-18T03:06:43;33.15;;;22.15;;
23718;SDS011;43322;52.230;5.702;2023-09-18T03:09:10;29.85;;;22.30;;
23718;SDS011;43322;52.230;5.702;2023-09-18T03:11:37;33.35;;;21.88;;
23718;SDS011;43322;52.230;5.702;2023-09-18T03:14:03;29.73;;;20.85;;
23718;SDS011;43322;52.230;5.702;2023-09-18T03:16:30;30.27;;;21.02;;
23718;SDS011;43322;52.230;5.702;2023-09-18T03:18:58;28.45;;;20.42;;
23718;SDS011;43322;52.230;5.702;2023-09-18T03:21:24;27.48;;;19.85;;
23718;SDS011;43322;52.230;5.702;2023-09-18T03:23:52;28.48;;;20.55;;
23718;SDS011;43322;52.230;5.702;2023-09-18T03:26:19;24.15;;;18.35;;
23718;SDS011;43322;52.230;5.702;2023-09-18T03:28:46;27.13;;;19.83;;
23718;SDS011;43322;52.230;5.702;2023-09-18T03:31:12;25.20;;;18.73;;
23718;SDS011;43322;52.230;5.702;2023-09-18T03:33:39;23.38;;;17.90;;
23718;SDS011;43322;52.230;5.702;2023-09-18T03:36:06;25.75;;;19.50;;
23718;SDS011;43322;52.230;5.702;2023-09-18T03:38:33;29.83;;;19.80;;
23718;SDS011;43322;52.230;5.702;2023-09-18T03:41:02;30.08;;;19.58;;
23718;SDS011;43322;52.230;5.702;2023-09-18T03:43:28;28.13;;;19.75;;
23718;SDS011;43322;52.230;5.702;2023-09-18T03:45:55;26.02;;;19.67;;
23718;SDS011;43322;52.230;5.702;2023-09-18T03:48:28;28.70;;;19.58;;
23718;SDS011;43322;52.230;5.702;2023-09-18T03:51:01;31.05;;;20.45;;
23718;SDS011;43322;52.230;5.702;2023-09-18T03:53:27;27.30;;;18.83;;
23718;SDS011;43322;52.230;5.702;2023-09-18T03:55:54;28.30;;;20.13;;
23718;SDS011;43322;52.230;5.702;2023-09-18T03:58:22;27.20;;;18.92;;
23718;SDS011;43322;52.230;5.702;2023-09-18T04:00:49;30.33;;;20.45;;
23718;SDS011;43322;52.230;5.702;2023-09-18T04:03:16;25.90;;;19.52;;
23718;SDS011;43322;52.230;5.702;2023-09-18T04:05:43;28.25;;;19.80;;
23718;SDS011;43322;52.230;5.702;2023-09-18T04:08:10;25.73;;;19.48;;
23718;SDS011;43322;52.230;5.702;2023-09-18T04:10:38;32.95;;;19.58;;
23718;SDS011;43322;52.230;5.702;2023-09-18T04:13:05;24.20;;;17.98;;
23718;SDS011;43322;52.230;5.702;2023-09-18T04:15:33;24.42;;;19.23;;
23718;SDS011;43322;52.230;5.702;2023-09-18T04:18:02;27.60;;;19.70;;
23718;SDS011;43322;52.230;5.702;2023-09-18T04:20:29;24.25;;;19.15;;
23718;SDS011;43322;52.230;5.702;2023-09-18T04:25:45;23.10;;;18.58;;
23718;SDS011;43322;52.230;5.702;2023-09-18T04:28:12;26.00;;;19.98;;
23718;SDS011;43322;52.230;5.702;2023-09-18T04:30:40;27.02;;;20.83;;
23718;SDS011;43322;52.230;5.702;2023-09-18T04:33:07;28.60;;;21.08;;
23718;SDS011;43322;52.230;5.702;2023-09-18T04:35:33;30.67;;;20.55;;
23718;SDS011;43322;52.230;5.702;2023-09-18T04:38:00;32.90;;;21.88;;
23718;SDS011;43322;52.230;5.702;2023-09-18T04:40:27;26.38;;;21.33;;
23718;SDS011;43322;52.230;5.702;2023-09-18T04:42:57;28.20;;;20.35;;
23718;SDS011;43322;52.230;5.702;2023-09-18T04:45:23;25.70;;;20.70;;
23718;SDS011;43322;52.230;5.702;2023-09-18T04:47:51;33.33;;;21.98;;
23718;SDS011;43322;52.230;5.702;2023-09-18T04:50:18;29.27;;;21.10;;
23718;SDS011;43322;52.230;5.702;2023-09-18T04:52:45;27.25;;;19.63;;
23718;SDS011;43322;52.230;5.702;2023-09-18T04:55:12;28.58;;;20.08;;
23718;SDS011;43322;52.230;5.702;2023-09-18T04:57:39;36.13;;;22.55;;
23718;SDS011;43322;52.230;5.702;2023-09-18T05:00:06;37.22;;;22.48;;
23718;SDS011;43322;52.230;5.702;2023-09-18T05:02:37;31.77;;;21.98;;
23718;SDS011;43322;52.230;5.702;2023-09-18T05:05:05;28.02;;;22.15;;
23718;SDS011;43322;52.230;5.702;2023-09-18T05:07:34;31.17;;;21.45;;
23718;SDS011;43322;52.230;5.702;2023-09-18T05:10:01;29.25;;;22.75;;
23718;SDS011;43322;52.230;5.702;2023-09-18T05:12:29;33.85;;;23.63;;
23718;SDS011;43322;52.230;5.702;2023-09-18T05:14:57;38.00;;;24.73;;
23718;SDS011;43322;52.230;5.702;2023-09-18T05:17:27;29.52;;;24.25;;
23718;SDS011;43322;52.230;5.702;2023-09-18T05:20:09;34.72;;;24.02;;
23718;SDS011;43322;52.230;5.702;2023-09-18T05:22:38;34.35;;;23.92;;
23718;SDS011;43322;52.230;5.702;2023-09-18T05:25:05;38.78;;;25.17;;
23718;SDS011;43322;52.230;5.702;2023-09-18T05:27:32;38.05;;;25.30;;
23718;SDS011;43322;52.230;5.702;2023-09-18T05:29:58;39.63;;;25.33;;
23718;SDS011;43322;52.230;5.702;2023-09-18T05:32:25;42.25;;;26.10;;
23718;SDS011;43322;52.230;5.702;2023-09-18T05:34:51;43.30;;;26.38;;
23718;SDS011;43322;52.230;5.702;2023-09-18T05:37:19;33.97;;;22.70;;
23718;SDS011;43322;52.230;5.702;2023-09-18T05:39:46;22.48;;;14.90;;
23718;SDS011;43322;52.230;5.702;2023-09-18T05:42:13;17.30;;;14.00;;
23718;SDS011;43322;52.230;5.702;2023-09-18T05:44:41;18.95;;;15.40;;
23718;SDS011;43322;52.230;5.702;2023-09-18T05:47:07;24.35;;;17.85;;
23718;SDS011;43322;52.230;5.702;2023-09-18T05:49:34;29.55;;;16.45;;
23718;SDS011;43322;52.230;5.702;2023-09-18T05:52:01;26.25;;;16.70;;
23718;SDS011;43322;52.230;5.702;2023-09-18T05:54:29;20.67;;;15.43;;
23718;SDS011;43322;52.230;5.702;2023-09-18T05:56:56;24.42;;;16.70;;
23718;SDS011;43322;52.230;5.702;2023-09-18T05:59:22;21.17;;;15.60;;
23718;SDS011;43322;52.230;5.702;2023-09-18T06:01:49;27.90;;;19.00;;
23718;SDS011;43322;52.230;5.702;2023-09-18T06:04:16;24.50;;;17.30;;
23718;SDS011;43322;52.230;5.702;2023-09-18T06:06:42;22.92;;;15.75;;
23718;SDS011;43322;52.230;5.702;2023-09-18T06:09:09;23.77;;;18.10;;
23718;SDS011;43322;52.230;5.702;2023-09-18T06:11:37;26.85;;;18.48;;
23718;SDS011;43322;52.230;5.702;2023-09-18T06:14:04;29.23;;;20.38;;
23718;SDS011;43322;52.230;5.702;2023-09-18T06:16:30;33.65;;;21.85;;
23718;SDS011;43322;52.230;5.702;2023-09-18T06:18:57;29.23;;;21.60;;
23718;SDS011;43322;52.230;5.702;2023-09-18T06:21:25;29.20;;;21.70;;
23718;SDS011;43322;52.230;5.702;2023-09-18T06:23:51;26.35;;;19.70;;
23718;SDS011;43322;52.230;5.702;2023-09-18T06:26:18;27.15;;;20.40;;
23718;SDS011;43322;52.230;5.702;2023-09-18T06:28:48;36.85;;;24.13;;
23718;SDS011;43322;52.230;5.702;2023-09-18T06:31:14;38.70;;;23.83;;
23718;SDS011;43322;52.230;5.702;2023-09-18T06:33:41;35.50;;;22.80;;
23718;SDS011;43322;52.230;5.702;2023-09-18T06:36:08;37.65;;;24.33;;
23718;SDS011;43322;52.230;5.702;2023-09-18T06:38:35;40.45;;;24.30;;
23718;SDS011;43322;52.230;5.702;2023-09-18T06:41:01;34.75;;;24.23;;
23718;SDS011;43322;52.230;5.702;2023-09-18T06:43:29;38.33;;;24.45;;
23718;SDS011;43322;52.230;5.702;2023-09-18T06:45:56;28.52;;;21.85;;
23718;SDS011;43322;52.230;5.702;2023-09-18T06:48:23;38.22;;;23.70;;
23718;SDS011;43322;52.230;5.702;2023-09-18T06:50:50;34.22;;;24.83;;
23718;SDS011;43322;52.230;5.702;2023-09-18T06:53:17;35.75;;;25.20;;
23718;SDS011;43322;52.230;5.702;2023-09-18T06:55:43;37.65;;;24.02;;
23718;SDS011;43322;52.230;5.702;2023-09-18T06:58:10;37.95;;;24.50;;
23718;SDS011;43322;52.230;5.702;2023-09-18T07:00:37;31.95;;;23.23;;
23718;SDS011;43322;52.230;5.702;2023-09-18T07:03:05;36.95;;;24.85;;
23718;SDS011;43322;52.230;5.702;2023-09-18T07:05:34;30.13;;;21.45;;
23718;SDS011;43322;52.230;5.702;2023-09-18T07:08:01;37.25;;;23.13;;
23718;SDS011;43322;52.230;5.702;2023-09-18T07:10:30;43.42;;;23.20;;
23718;SDS011;43322;52.230;5.702;2023-09-18T07:12:58;32.58;;;22.27;;
23718;SDS011;43322;52.230;5.702;2023-09-18T07:15:24;40.70;;;23.25;;
23718;SDS011;43322;52.230;5.702;2023-09-18T07:17:51;40.38;;;22.60;;
23718;SDS011;43322;52.230;5.702;2023-09-18T07:20:19;31.88;;;20.55;;
23718;SDS011;43322;52.230;5.702;2023-09-18T07:22:47;34.58;;;22.00;;
23718;SDS011;43322;52.230;5.702;2023-09-18T07:25:15;30.75;;;20.90;;
23718;SDS011;43322;52.230;5.702;2023-09-18T07:27:42;32.72;;;23.08;;
23718;SDS011;43322;52.230;5.702;2023-09-18T07:30:09;34.72;;;21.83;;
23718;SDS011;43322;52.230;5.702;2023-09-18T07:32:38;29.88;;;20.90;;
23718;SDS011;43322;52.230;5.702;2023-09-18T07:35:07;30.52;;;21.77;;
23718;SDS011;43322;52.230;5.702;2023-09-18T07:37:36;34.67;;;22.63;;
23718;SDS011;43322;52.230;5.702;2023-09-18T07:40:03;39.40;;;23.20;;
23718;SDS011;43322;52.230;5.702;2023-09-18T07:42:30;29.90;;;20.38;;
23718;SDS011;43322;52.230;5.702;2023-09-18T07:44:57;29.23;;;22.67;;
23718;SDS011;43322;52.230;5.702;2023-09-18T07:47:24;34.08;;;21.08;;
23718;SDS011;43322;52.230;5.702;2023-09-18T07:49:50;30.13;;;21.92;;
23718;SDS011;43322;52.230;5.702;2023-09-18T07:52:19;31.20;;;20.88;;
23718;SDS011;43322;52.230;5.702;2023-09-18T07:54:47;27.23;;;20.33;;
23718;SDS011;43322;52.230;5.702;2023-09-18T07:57:13;29.10;;;20.33;;
23718;SDS011;43322;52.230;5.702;2023-09-18T07:59:41;28.85;;;20.23;;
23718;SDS011;43322;52.230;5.702;2023-09-18T08:02:09;29.80;;;21.05;;
23718;SDS011;43322;52.230;5.702;2023-09-18T08:04:37;27.45;;;20.48;;
23718;SDS011;43322;52.230;5.702;2023-09-18T08:07:04;27.23;;;20.60;;
23718;SDS011;43322;52.230;5.702;2023-09-18T08:09:31;29.52;;;20.02;;
23718;SDS011;43322;52.230;5.702;2023-09-18T08:12:02;29.63;;;20.30;;
23718;SDS011;43322;52.230;5.702;2023-09-18T08:14:30;26.55;;;20.05;;
23718;SDS011;43322;52.230;5.702;2023-09-18T08:16:56;28.63;;;19.70;;
23718;SDS011;43322;52.230;5.702;2023-09-18T08:19:23;26.50;;;18.67;;
23718;SDS011;43322;52.230;5.702;2023-09-18T08:21:52;28.83;;;19.70;;
23718;SDS011;43322;52.230;5.702;2023-09-18T08:24:19;25.80;;;19.60;;
23718;SDS011;43322;52.230;5.702;2023-09-18T08:26:46;22.13;;;17.17;;
23718;SDS011;43322;52.230;5.702;2023-09-18T08:29:14;25.70;;;18.60;;
23718;SDS011;43322;52.230;5.702;2023-09-18T08:31:41;26.25;;;19.17;;
23718;SDS011;43322;52.230;5.702;2023-09-18T08:34:08;26.35;;;17.20;;
23718;SDS011;43322;52.230;5.702;2023-09-18T08:36:34;21.02;;;16.80;;
23718;SDS011;43322;52.230;5.702;2023-09-18T08:39:01;19.70;;;16.02;;
23718;SDS011;43322;52.230;5.702;2023-09-18T08:41:31;21.98;;;16.35;;
23718;SDS011;43322;52.230;5.702;2023-09-18T08:43:59;20.42;;;15.23;;
23718;SDS011;43322;52.230;5.702;2023-09-18T08:46:29;17.88;;;14.98;;
23718;SDS011;43322;52.230;5.702;2023-09-18T08:48:57;17.73;;;15.07;;
23718;SDS011;43322;52.230;5.702;2023-09-18T08:51:24;19.13;;;14.20;;
23718;SDS011;43322;52.230;5.702;2023-09-18T08:53:52;16.98;;;14.80;;
23718;SDS011;43322;52.230;5.702;2023-09-18T08:56:21;16.25;;;14.52;;
23718;SDS011;43322;52.230;5.702;2023-09-18T08:58:48;17.10;;;13.50;;
23718;SDS011;43322;52.230;5.702;2023-09-18T09:01:15;16.00;;;13.50;;
23718;SDS011;43322;52.230;5.702;2023-09-18T09:03:43;13.73;;;12.40;;
23718;SDS011;43322;52.230;5.702;2023-09-18T09:06:11;13.68;;;12.25;;
23718;SDS011;43322;52.230;5.702;2023-09-18T09:08:38;13.75;;;11.18;;
23718;SDS011;43322;52.230;5.702;2023-09-18T09:11:05;12.93;;;11.65;;
23718;SDS011;43322;52.230;5.702;2023-09-18T09:13:32;13.43;;;11.80;;
23718;SDS011;43322;52.230;5.702;2023-09-18T09:15:59;11.20;;;10.20;;
23718;SDS011;43322;52.230;5.702;2023-09-18T09:18:27;10.98;;;9.95;;
23718;SDS011;43322;52.230;5.702;2023-09-18T09:20:58;9.52;;;8.75;;
23718;SDS011;43322;52.230;5.702;2023-09-18T09:23:28;9.50;;;8.70;;
23718;SDS011;43322;52.230;5.702;2023-09-18T09:26:11;9.32;;;8.48;;
23718;SDS011;43322;52.230;5.702;2023-09-18T09:28:39;8.82;;;8.13;;
23718;SDS011;43322;52.230;5.702;2023-09-18T09:31:08;12.80;;;8.65;;
23718;SDS011;43322;52.230;5.702;2023-09-18T09:33:35;8.32;;;7.68;;
23718;SDS011;43322;52.230;5.702;2023-09-18T09:36:05;8.38;;;7.72;;
23718;SDS011;43322;52.230;5.702;2023-09-18T09:38:32;8.48;;;7.75;;
23718;SDS011;43322;52.230;5.702;2023-09-18T09:41:00;8.23;;;7.50;;
23718;SDS011;43322;52.230;5.702;2023-09-18T09:43:27;8.23;;;7.55;;
23718;SDS011;43322;52.230;5.702;2023-09-18T09:45:57;8.10;;;7.30;;
23718;SDS011;43322;52.230;5.702;2023-09-18T09:48:26;11.05;;;7.07;;
23718;SDS011;43322;52.230;5.702;2023-09-18T09:50:57;8.38;;;5.93;;
23718;SDS011;43322;52.230;5.702;2023-09-18T09:53:45;7.57;;;6.22;;
23718;SDS011;43322;52.230;5.702;2023-09-18T09:56:13;5.82;;;5.40;;
23718;SDS011;43322;52.230;5.702;2023-09-18T09:58:50;6.05;;;5.53;;
23718;SDS011;43322;52.230;5.702;2023-09-18T10:01:27;5.70;;;5.28;;
23718;SDS011;43322;52.230;5.702;2023-09-18T10:03:54;5.25;;;4.85;;
23718;SDS011;43322;52.230;5.702;2023-09-18T10:06:22;7.40;;;6.38;;
23718;SDS011;43322;52.230;5.702;2023-09-18T10:08:51;5.28;;;4.80;;
23718;SDS011;43322;52.230;5.702;2023-09-18T10:11:21;5.55;;;5.05;;
23718;SDS011;43322;52.230;5.702;2023-09-18T10:13:51;5.35;;;4.82;;
23718;SDS011;43322;52.230;5.702;2023-09-18T10:16:22;4.93;;;4.32;;
23718;SDS011;43322;52.230;5.702;2023-09-18T10:18:55;5.68;;;5.22;;
23718;SDS011;43322;52.230;5.702;2023-09-18T10:21:30;5.13;;;4.70;;
23718;SDS011;43322;52.230;5.702;2023-09-18T10:24:10;5.63;;;4.30;;
23718;SDS011;43322;52.230;5.702;2023-09-18T10:26:44;4.90;;;4.60;;
23718;SDS011;43322;52.230;5.702;2023-09-18T10:29:17;5.22;;;4.72;;
23718;SDS011;43322;52.230;5.702;2023-09-18T10:31:46;5.68;;;5.07;;
23718;SDS011;43322;52.230;5.702;2023-09-18T10:34:14;9.77;;;4.82;;
23718;SDS011;43322;52.230;5.702;2023-09-18T10:36:42;5.95;;;4.85;;
23718;SDS011;43322;52.230;5.702;2023-09-18T10:39:10;5.25;;;4.80;;
23718;SDS011;43322;52.230;5.702;2023-09-18T10:41:38;5.07;;;4.70;;
23718;SDS011;43322;52.230;5.702;2023-09-18T10:44:06;5.18;;;4.88;;
23718;SDS011;43322;52.230;5.702;2023-09-18T10:46:33;5.72;;;5.15;;
23718;SDS011;43322;52.230;5.702;2023-09-18T10:49:00;5.93;;;5.53;;
23718;SDS011;43322;52.230;5.702;2023-09-18T10:51:28;4.35;;;4.15;;
23718;SDS011;43322;52.230;5.702;2023-09-18T10:53:57;4.38;;;3.97;;
23718;SDS011;43322;52.230;5.702;2023-09-18T10:56:25;6.25;;;5.80;;
23718;SDS011;43322;52.230;5.702;2023-09-18T10:58:56;4.85;;;4.28;;
23718;SDS011;43322;52.230;5.702;2023-09-18T11:01:24;6.07;;;5.47;;
23718;SDS011;43322;52.230;5.702;2023-09-18T11:03:52;7.15;;;5.50;;
23718;SDS011;43322;52.230;5.702;2023-09-18T11:06:19;6.00;;;5.57;;
23718;SDS011;43322;52.230;5.702;2023-09-18T11:08:51;5.50;;;5.18;;
23718;SDS011;43322;52.230;5.702;2023-09-18T11:11:27;10.00;;;6.65;;
23718;SDS011;43322;52.230;5.702;2023-09-18T11:13:55;6.93;;;6.15;;
23718;SDS011;43322;52.230;5.702;2023-09-18T11:16:35;7.90;;;6.80;;
23718;SDS011;43322;52.230;5.702;2023-09-18T11:19:05;7.15;;;6.75;;
23718;SDS011;43322;52.230;5.702;2023-09-18T11:21:35;7.93;;;7.25;;
23718;SDS011;43322;52.230;5.702;2023-09-18T11:24:03;9.32;;;8.48;;
23718;SDS011;43322;52.230;5.702;2023-09-18T11:26:33;10.30;;;8.40;;
23718;SDS011;43322;52.230;5.702;2023-09-18T11:29:00;10.48;;;7.32;;
23718;SDS011;43322;52.230;5.702;2023-09-18T11:31:40;8.90;;;7.55;;
23718;SDS011;43322;52.230;5.702;2023-09-18T11:34:12;10.77;;;7.85;;
23718;SDS011;43322;52.230;5.702;2023-09-18T11:36:40;9.05;;;8.23;;
23718;SDS011;43322;52.230;5.702;2023-09-18T11:39:07;9.65;;;7.38;;
23718;SDS011;43322;52.230;5.702;2023-09-18T11:41:36;12.15;;;8.02;;
23718;SDS011;43322;52.230;5.702;2023-09-18T11:47:00;10.93;;;7.97;;
23718;SDS011;43322;52.230;5.702;2023-09-18T11:49:29;9.18;;;8.13;;
23718;SDS011;43322;52.230;5.702;2023-09-18T11:51:58;8.65;;;7.82;;
23718;SDS011;43322;52.230;5.702;2023-09-18T11:54:26;9.07;;;8.20;;
23718;SDS011;43322;52.230;5.702;2023-09-18T11:56:55;9.88;;;8.98;;
23718;SDS011;43322;52.230;5.702;2023-09-18T11:59:33;9.02;;;8.43;;
23718;SDS011;43322;52.230;5.702;2023-09-18T12:02:03;8.85;;;8.25;;
23718;SDS011;43322;52.230;5.702;2023-09-18T12:04:33;9.57;;;8.63;;
23718;SDS011;43322;52.230;5.702;2023-09-18T12:07:00;8.73;;;7.93;;
23718;SDS011;43322;52.230;5.702;2023-09-18T12:09:28;9.77;;;8.80;;
23718;SDS011;43322;52.230;5.702;2023-09-18T12:11:57;9.40;;;8.55;;
23718;SDS011;43322;52.230;5.702;2023-09-18T12:14:29;7.93;;;7.35;;
23718;SDS011;43322;52.230;5.702;2023-09-18T12:16:56;9.63;;;6.60;;
23718;SDS011;43322;52.230;5.702;2023-09-18T12:19:23;7.75;;;6.20;;
23718;SDS011;43322;52.230;5.702;2023-09-18T12:21:50;6.15;;;4.93;;
23718;SDS011;43322;52.230;5.702;2023-09-18T12:24:20;5.60;;;4.70;;
23718;SDS011;43322;52.230;5.702;2023-09-18T12:26:47;5.07;;;4.30;;
23718;SDS011;43322;52.230;5.702;2023-09-18T12:29:15;4.65;;;4.25;;
23718;SDS011;43322;52.230;5.702;2023-09-18T12:31:42;4.40;;;3.92;;
23718;SDS011;43322;52.230;5.702;2023-09-18T12:34:13;7.78;;;4.03;;
23718;SDS011;43322;52.230;5.702;2023-09-18T12:36:41;6.70;;;4.40;;
23718;SDS011;43322;52.230;5.702;2023-09-18T12:39:09;3.60;;;3.30;;
23718;SDS011;43322;52.230;5.702;2023-09-18T12:41:37;4.18;;;3.50;;
23718;SDS011;43322;52.230;5.702;2023-09-18T12:44:05;5.00;;;3.78;;
23718;SDS011;43322;52.230;5.702;2023-09-18T12:46:33;5.13;;;3.80;;
23718;SDS011;43322;52.230;5.702;2023-09-18T12:49:14;3.97;;;3.67;;
23718;SDS011;43322;52.230;5.702;2023-09-18T12:51:42;5.70;;;3.78;;
23718;SDS011;43322;52.230;5.702;2023-09-18T12:54:09;5.28;;;3.83;;
23718;SDS011;43322;52.230;5.702;2023-09-18T12:56:41;10.55;;;4.25;;
23718;SDS011;43322;52.230;5.702;2023-09-18T12:59:08;8.70;;;3.97;;
23718;SDS011;43322;52.230;5.702;2023-09-18T13:01:36;7.18;;;4.07;;
23718;SDS011;43322;52.230;5.702;2023-09-18T13:04:03;4.68;;;4.28;;
23718;SDS011;43322;52.230;5.702;2023-09-18T13:06:31;4.85;;;4.05;;
23718;SDS011;43322;52.230;5.702;2023-09-18T13:11:52;5.50;;;4.47;;
23718;SDS011;43322;52.230;5.702;2023-09-18T13:14:20;4.68;;;4.38;;
23718;SDS011;43322;52.230;5.702;2023-09-18T13:16:48;4.93;;;4.53;;
23718;SDS011;43322;52.230;5.702;2023-09-18T13:19:14;4.68;;;4.30;;
23718;SDS011;43322;52.230;5.702;2023-09-18T13:21:46;4.90;;;4.35;;
23718;SDS011;43322;52.230;5.702;2023-09-18T13:24:23;5.07;;;4.10;;
23718;SDS011;43322;52.230;5.702;2023-09-18T13:26:52;4.40;;;4.10;;
23718;SDS011;43322;52.230;5.702;2023-09-18T13:29:19;4.32;;;3.80;;
23718;SDS011;43322;52.230;5.702;2023-09-18T13:31:47;4.80;;;3.80;;
23718;SDS011;43322;52.230;5.702;2023-09-18T13:34:14;5.65;;;3.72;;
23718;SDS011;43322;52.230;5.702;2023-09-18T13:36:43;3.97;;;3.60;;
23718;SDS011;43322;52.230;5.702;2023-09-18T13:39:10;4.45;;;3.20;;
23718;SDS011;43322;52.230;5.702;2023-09-18T13:41:37;3.60;;;3.30;;
23718;SDS011;43322;52.230;5.702;2023-09-18T13:44:04;5.25;;;3.35;;
23718;SDS011;43322;52.230;5.702;2023-09-18T13:46:31;3.88;;;3.58;;
23718;SDS011;43322;52.230;5.702;2023-09-18T13:49:02;3.80;;;3.30;;
23718;SDS011;43322;52.230;5.702;2023-09-18T13:51:29;4.95;;;3.60;;
23718;SDS011;43322;52.230;5.702;2023-09-18T13:53:57;5.32;;;3.47;;
23718;SDS011;43322;52.230;5.702;2023-09-18T13:56:23;3.55;;;3.25;;
23718;SDS011;43322;52.230;5.702;2023-09-18T13:58:52;8.35;;;3.33;;
23718;SDS011;43322;52.230;5.702;2023-09-18T14:01:20;3.67;;;2.85;;
23718;SDS011;43322;52.230;5.702;2023-09-18T14:03:47;3.45;;;3.15;;
23718;SDS011;43322;52.230;5.702;2023-09-18T14:06:17;4.82;;;3.05;;
23718;SDS011;43322;52.230;5.702;2023-09-18T14:08:43;3.30;;;2.78;;
23718;SDS011;43322;52.230;5.702;2023-09-18T14:11:10;4.10;;;2.70;;
23718;SDS011;43322;52.230;5.702;2023-09-18T14:13:37;2.95;;;2.67;;
23718;SDS011;43322;52.230;5.702;2023-09-18T14:16:04;2.42;;;2.20;;
23718;SDS011;43322;52.230;5.702;2023-09-18T14:18:31;4.53;;;2.63;;
23718;SDS011;43322;52.230;5.702;2023-09-18T14:20:57;3.05;;;2.38;;
23718;SDS011;43322;52.230;5.702;2023-09-18T14:23:26;2.70;;;2.50;;
23718;SDS011;43322;52.230;5.702;2023-09-18T14:25:53;5.30;;;2.42;;
23718;SDS011;43322;52.230;5.702;2023-09-18T14:28:20;7.72;;;2.40;;
23718;SDS011;43322;52.230;5.702;2023-09-18T14:30:47;3.58;;;2.53;;
23718;SDS011;43322;52.230;5.702;2023-09-18T14:33:13;3.13;;;2.47;;
23718;SDS011;43322;52.230;5.702;2023-09-18T14:35:40;4.50;;;2.90;;
23718;SDS011;43322;52.230;5.702;2023-09-18T14:38:07;3.60;;;2.50;;
23718;SDS011;43322;52.230;5.702;2023-09-18T14:40:35;4.05;;;2.90;;
23718;SDS011;43322;52.230;5.702;2023-09-18T14:43:02;2.83;;;2.60;;
23718;SDS011;43322;52.230;5.702;2023-09-18T14:45:30;2.75;;;2.20;;